sensor_id;sensor_type;location;lat;lon;timestamp;pressure;altitude;pressure_sealevel;temperature;humidity
62710;BME280;48770;51.624;5.886;2023-03-16T00:02:06;101671.31;;;21.05;35.18
62710;BME280;48770;51.624;5.886;2023-03-16T00:04:32;101675.25;;;21.04;35.38
62710;BME280;48770;51.624;5.886;2023-03-16T00:07:05;101671.66;;;21.03;35.23
62710;BME280;48770;51.624;5.886;2023-03-16T00:09:31;101665.25;;;21.03;35.39
62710;BME280;48770;51.624;5.886;2023-03-16T00:11:57;101664.44;;;21.02;35.06
62710;BME280;48770;51.624;5.886;2023-03-16T00:14:24;101657.25;;;21.01;35.10
62710;BME280;48770;51.624;5.886;2023-03-16T00:16:49;101660.38;;;21.00;35.01
62710;BME280;48770;51.624;5.886;2023-03-16T00:19:15;101655.97;;;20.99;34.99
62710;BME280;48770;51.624;5.886;2023-03-16T00:21:40;101648.78;;;20.98;35.08
62710;BME280;48770;51.624;5.886;2023-03-16T00:24:06;101654.66;;;20.96;35.06
62710;BME280;48770;51.624;5.886;2023-03-16T00:26:31;101658.59;;;20.95;35.33
62710;BME280;48770;51.624;5.886;2023-03-16T00:28:56;101658.59;;;20.95;35.38
62710;BME280;48770;51.624;5.886;2023-03-16T00:31:22;101663.69;;;20.93;35.01
62710;BME280;48770;51.624;5.886;2023-03-16T00:33:49;101656.97;;;20.94;34.93
62710;BME280;48770;51.624;5.886;2023-03-16T00:36:15;101641.44;;;20.93;35.38
62710;BME280;48770;51.624;5.886;2023-03-16T00:38:43;101648.16;;;20.92;35.09
62710;BME280;48770;51.624;5.886;2023-03-16T00:41:10;101650.13;;;20.91;35.11
62710;BME280;48770;51.624;5.886;2023-03-16T00:43:38;101647.66;;;20.90;35.16
62710;BME280;48770;51.624;5.886;2023-03-16T00:46:12;101644.88;;;20.90;35.25
62710;BME280;48770;51.624;5.886;2023-03-16T00:48:39;101637.69;;;20.89;35.24
62710;BME280;48770;51.624;5.886;2023-03-16T00:51:08;101633.28;;;20.88;35.28
62710;BME280;48770;51.624;5.886;2023-03-16T00:53:38;101630.50;;;20.88;35.00
62710;BME280;48770;51.624;5.886;2023-03-16T00:56:04;101623.00;;;20.88;35.42
62710;BME280;48770;51.624;5.886;2023-03-16T00:58:31;101623.00;;;20.88;35.24
62710;BME280;48770;51.624;5.886;2023-03-16T01:01:04;101614.50;;;20.85;35.06
62710;BME280;48770;51.624;5.886;2023-03-16T01:03:30;101619.25;;;20.84;34.91
62710;BME280;48770;51.624;5.886;2023-03-16T01:05:56;101612.06;;;20.83;35.01
62710;BME280;48770;51.624;5.886;2023-03-16T01:08:25;101615.66;;;20.84;35.06
62710;BME280;48770;51.624;5.886;2023-03-16T01:10:53;101608.47;;;20.83;35.23
62710;BME280;48770;51.624;5.886;2023-03-16T01:13:19;101613.22;;;20.82;35.17
62710;BME280;48770;51.624;5.886;2023-03-16T01:15:44;101611.25;;;20.83;35.11
62710;BME280;48770;51.624;5.886;2023-03-16T01:18:10;101609.91;;;20.80;34.89
62710;BME280;48770;51.624;5.886;2023-03-16T01:20:37;101606.31;;;20.80;35.15
62710;BME280;48770;51.624;5.886;2023-03-16T01:23:03;101599.13;;;20.79;35.00
62710;BME280;48770;51.624;5.886;2023-03-16T01:25:28;101590.81;;;20.79;35.17
62710;BME280;48770;51.624;5.886;2023-03-16T01:27:54;101584.44;;;20.78;35.25
62710;BME280;48770;51.624;5.886;2023-03-16T01:30:19;101574.78;;;20.76;35.24
62710;BME280;48770;51.624;5.886;2023-03-16T01:32:45;101575.59;;;20.76;34.88
62710;BME280;48770;51.624;5.886;2023-03-16T01:35:10;101582.66;;;20.74;35.12
62710;BME280;48770;51.624;5.886;2023-03-16T01:37:36;101580.69;;;20.74;35.21
62710;BME280;48770;51.624;5.886;2023-03-16T01:40:01;101577.09;;;20.74;34.98
62710;BME280;48770;51.624;5.886;2023-03-16T01:42:30;101575.47;;;20.73;35.18
62710;BME280;48770;51.624;5.886;2023-03-16T01:44:57;101564.34;;;20.73;35.12
62710;BME280;48770;51.624;5.886;2023-03-16T01:47:26;101562.72;;;20.72;34.80
62710;BME280;48770;51.624;5.886;2023-03-16T01:49:53;101566.31;;;20.72;35.18
62710;BME280;48770;51.624;5.886;2023-03-16T01:52:24;101551.94;;;20.70;35.14
62710;BME280;48770;51.624;5.886;2023-03-16T01:54:57;101559.47;;;20.70;35.21
62710;BME280;48770;51.624;5.886;2023-03-16T01:57:31;101562.56;;;20.68;35.11
62710;BME280;48770;51.624;5.886;2023-03-16T02:00:11;101559.31;;;20.66;34.79
62710;BME280;48770;51.624;5.886;2023-03-16T02:02:57;101553.75;;;20.66;35.18
62710;BME280;48770;51.624;5.886;2023-03-16T02:06:01;101559.66;;;20.65;34.99
62710;BME280;48770;51.624;5.886;2023-03-16T02:08:26;101550.50;;;20.64;35.27
62710;BME280;48770;51.624;5.886;2023-03-16T02:10:52;101543.31;;;20.63;35.13
62710;BME280;48770;51.624;5.886;2023-03-16T02:13:21;101548.53;;;20.65;35.06
62710;BME280;48770;51.624;5.886;2023-03-16T02:15:47;101548.88;;;20.63;35.21
62710;BME280;48770;51.624;5.886;2023-03-16T02:18:13;101541.34;;;20.63;35.06
62710;BME280;48770;51.624;5.886;2023-03-16T02:20:51;101544.47;;;20.62;35.01
62710;BME280;48770;51.624;5.886;2023-03-16T02:23:23;101522.56;;;20.60;35.14
62710;BME280;48770;51.624;5.886;2023-03-16T02:30:53;101518.97;;;20.60;35.12
62710;BME280;48770;51.624;5.886;2023-03-16T02:33:20;101528.47;;;20.59;35.23
62710;BME280;48770;51.624;5.886;2023-03-16T02:35:45;101518.16;;;20.59;34.91
62710;BME280;48770;51.624;5.886;2023-03-16T02:38:10;101519.31;;;20.58;35.08
62710;BME280;48770;51.624;5.886;2023-03-16T02:40:36;101518.50;;;20.58;35.26
62710;BME280;48770;51.624;5.886;2023-03-16T02:43:08;101506.56;;;20.57;35.10
62710;BME280;48770;51.624;5.886;2023-03-16T02:45:55;101516.69;;;20.53;34.91
62710;BME280;48770;51.624;5.886;2023-03-16T02:48:27;101521.94;;;20.55;35.12
62710;BME280;48770;51.624;5.886;2023-03-16T02:50:56;101519.47;;;20.53;35.13
62710;BME280;48770;51.624;5.886;2023-03-16T02:53:22;101508.84;;;20.55;35.14
62710;BME280;48770;51.624;5.886;2023-03-16T02:55:47;101509.69;;;20.56;34.88
62710;BME280;48770;51.624;5.886;2023-03-16T02:58:13;101512.13;;;20.57;34.89
62710;BME280;48770;51.624;5.886;2023-03-16T03:00:39;101514.56;;;20.59;35.10
62710;BME280;48770;51.624;5.886;2023-03-16T03:03:05;101513.44;;;20.60;34.94
62710;BME280;48770;51.624;5.886;2023-03-16T03:05:32;101515.88;;;20.61;34.88
62710;BME280;48770;51.624;5.886;2023-03-16T03:07:57;101513.91;;;20.62;34.98
62710;BME280;48770;51.624;5.886;2023-03-16T03:10:23;101502.78;;;20.62;35.03
62710;BME280;48770;51.624;5.886;2023-03-16T03:12:48;101504.41;;;20.63;35.09
62710;BME280;48770;51.624;5.886;2023-03-16T03:15:15;101506.84;;;20.65;35.03
62710;BME280;48770;51.624;5.886;2023-03-16T03:17:40;101506.53;;;20.66;35.21
62710;BME280;48770;51.624;5.886;2023-03-16T03:20:09;101503.41;;;20.68;35.04
62710;BME280;48770;51.624;5.886;2023-03-16T03:22:40;101499.00;;;20.67;34.82
62710;BME280;48770;51.624;5.886;2023-03-16T03:25:06;101503.88;;;20.70;34.69
62710;BME280;48770;51.624;5.886;2023-03-16T03:27:33;101504.69;;;20.70;34.91
62710;BME280;48770;51.624;5.886;2023-03-16T03:29:58;101505.19;;;20.72;34.91
62710;BME280;48770;51.624;5.886;2023-03-16T03:32:23;101503.22;;;20.73;34.93
62710;BME280;48770;51.624;5.886;2023-03-16T03:34:49;101500.44;;;20.73;35.15
62710;BME280;48770;51.624;5.886;2023-03-16T03:37:14;101502.06;;;20.74;34.84
62710;BME280;48770;51.624;5.886;2023-03-16T03:39:40;101501.72;;;20.75;34.79
62710;BME280;48770;51.624;5.886;2023-03-16T03:42:05;101491.41;;;20.76;35.13
62710;BME280;48770;51.624;5.886;2023-03-16T03:44:31;101479.97;;;20.77;34.85
62710;BME280;48770;51.624;5.886;2023-03-16T03:46:58;101489.13;;;20.78;34.69
62710;BME280;48770;51.624;5.886;2023-03-16T03:49:24;101487.16;;;20.78;34.88
62710;BME280;48770;51.624;5.886;2023-03-16T03:51:52;101482.41;;;20.79;34.96
62710;BME280;48770;51.624;5.886;2023-03-16T03:54:17;101478.97;;;20.82;34.88
62710;BME280;48770;51.624;5.886;2023-03-16T03:56:42;101474.25;;;20.82;34.68
62710;BME280;48770;51.624;5.886;2023-03-16T03:59:08;101475.06;;;20.83;34.95
62710;BME280;48770;51.624;5.886;2023-03-16T04:01:33;101469.50;;;20.83;34.92
62710;BME280;48770;51.624;5.886;2023-03-16T04:03:58;101465.56;;;20.84;34.87
62710;BME280;48770;51.624;5.886;2023-03-16T04:06:24;101458.03;;;20.84;34.88
62710;BME280;48770;51.624;5.886;2023-03-16T04:08:49;101462.78;;;20.84;34.65
62710;BME280;48770;51.624;5.886;2023-03-16T04:11:15;101466.38;;;20.84;35.08
62710;BME280;48770;51.624;5.886;2023-03-16T04:13:40;101460.81;;;20.84;34.61
62710;BME280;48770;51.624;5.886;2023-03-16T04:16:06;101461.63;;;20.85;34.60
62710;BME280;48770;51.624;5.886;2023-03-16T04:18:31;101460.00;;;20.84;34.35
62710;BME280;48770;51.624;5.886;2023-03-16T04:21:07;101461.97;;;20.83;34.81
62710;BME280;48770;51.624;5.886;2023-03-16T04:23:36;101458.38;;;20.83;34.67
62710;BME280;48770;51.624;5.886;2023-03-16T04:26:02;101463.94;;;20.83;34.75
62710;BME280;48770;51.624;5.886;2023-03-16T04:28:29;101468.69;;;20.82;34.48
62710;BME280;48770;51.624;5.886;2023-03-16T04:30:54;101467.88;;;20.82;34.93
62710;BME280;48770;51.624;5.886;2023-03-16T04:33:20;101467.88;;;20.82;34.38
62710;BME280;48770;51.624;5.886;2023-03-16T04:35:46;101470.66;;;20.82;34.81
62710;BME280;48770;51.624;5.886;2023-03-16T04:38:12;101474.25;;;20.82;34.53
62710;BME280;48770;51.624;5.886;2023-03-16T04:40:37;101463.44;;;20.81;34.96
62710;BME280;48770;51.624;5.886;2023-03-16T04:43:03;101456.75;;;20.82;34.10
62710;BME280;48770;51.624;5.886;2023-03-16T04:45:28;101462.31;;;20.82;34.73
62710;BME280;48770;51.624;5.886;2023-03-16T04:47:54;101456.75;;;20.82;34.49
62710;BME280;48770;51.624;5.886;2023-03-16T04:50:19;101458.69;;;20.81;34.82
62710;BME280;48770;51.624;5.886;2023-03-16T04:52:44;101452.31;;;20.81;34.50
62710;BME280;48770;51.624;5.886;2023-03-16T04:55:10;101446.75;;;20.81;34.70
62710;BME280;48770;51.624;5.886;2023-03-16T04:57:36;101437.28;;;20.82;34.81
62710;BME280;48770;51.624;5.886;2023-03-16T05:00:02;101440.88;;;20.82;34.46
62710;BME280;48770;51.624;5.886;2023-03-16T05:02:34;101442.84;;;20.82;34.59
62710;BME280;48770;51.624;5.886;2023-03-16T05:04:59;101441.69;;;20.83;34.54
62710;BME280;48770;51.624;5.886;2023-03-16T05:07:25;101438.56;;;20.84;34.58
62710;BME280;48770;51.624;5.886;2023-03-16T05:09:50;101444.13;;;20.84;34.88
62710;BME280;48770;51.624;5.886;2023-03-16T05:12:15;101441.00;;;20.86;34.79
62710;BME280;48770;51.624;5.886;2023-03-16T05:14:41;101441.84;;;20.86;34.73
62710;BME280;48770;51.624;5.886;2023-03-16T05:17:06;101433.50;;;20.86;34.48
62710;BME280;48770;51.624;5.886;2023-03-16T05:19:31;101438.72;;;20.88;34.77
62710;BME280;48770;51.624;5.886;2023-03-16T05:21:57;101438.72;;;20.88;34.78
62710;BME280;48770;51.624;5.886;2023-03-16T05:24:23;101433.16;;;20.88;34.67
62710;BME280;48770;51.624;5.886;2023-03-16T05:26:48;101427.59;;;20.88;34.45
62710;BME280;48770;51.624;5.886;2023-03-16T05:29:13;101435.94;;;20.88;34.55
62710;BME280;48770;51.624;5.886;2023-03-16T05:31:39;101434.31;;;20.87;34.48
62710;BME280;48770;51.624;5.886;2023-03-16T05:34:04;101428.75;;;20.87;34.51
62710;BME280;48770;51.624;5.886;2023-03-16T05:36:30;101418.78;;;20.86;34.41
62710;BME280;48770;51.624;5.886;2023-03-16T05:38:55;101427.94;;;20.86;34.31
62710;BME280;48770;51.624;5.886;2023-03-16T05:41:21;101421.56;;;20.86;34.51
62710;BME280;48770;51.624;5.886;2023-03-16T05:43:47;101428.75;;;20.87;34.48
62710;BME280;48770;51.624;5.886;2023-03-16T05:46:13;101427.47;;;20.84;34.50
62710;BME280;48770;51.624;5.886;2023-03-16T05:48:38;101426.66;;;20.84;34.65
62710;BME280;48770;51.624;5.886;2023-03-16T05:51:04;101427.47;;;20.84;34.52
62710;BME280;48770;51.624;5.886;2023-03-16T05:53:33;101432.19;;;20.84;34.46
62710;BME280;48770;51.624;5.886;2023-03-16T05:55:59;101428.94;;;20.82;34.48
62710;BME280;48770;51.624;5.886;2023-03-16T05:58:25;101428.94;;;20.82;34.50
62710;BME280;48770;51.624;5.886;2023-03-16T06:00:51;101434.50;;;20.82;34.67
62710;BME280;48770;51.624;5.886;2023-03-16T06:03:16;101431.22;;;20.80;34.51
62710;BME280;48770;51.624;5.886;2023-03-16T06:05:42;101430.41;;;20.79;34.64
62710;BME280;48770;51.624;5.886;2023-03-16T06:08:07;101428.44;;;20.80;34.63
62710;BME280;48770;51.624;5.886;2023-03-16T06:10:34;101418.97;;;20.81;34.74
62710;BME280;48770;51.624;5.886;2023-03-16T06:12:59;101422.88;;;20.80;34.63
62710;BME280;48770;51.624;5.886;2023-03-16T06:15:24;101421.72;;;20.81;34.50
62710;BME280;48770;51.624;5.886;2023-03-16T06:17:51;101414.22;;;20.81;34.38
62710;BME280;48770;51.624;5.886;2023-03-16T06:20:16;101415.06;;;20.82;34.64
62710;BME280;48770;51.624;5.886;2023-03-16T06:22:42;101413.91;;;20.83;34.49
62710;BME280;48770;51.624;5.886;2023-03-16T06:25:09;101409.16;;;20.83;34.22
62710;BME280;48770;51.624;5.886;2023-03-16T06:27:36;101421.09;;;20.84;34.33
62710;BME280;48770;51.624;5.886;2023-03-16T06:30:04;101417.97;;;20.85;34.48
62710;BME280;48770;51.624;5.886;2023-03-16T06:32:30;101418.78;;;20.86;34.44
62710;BME280;48770;51.624;5.886;2023-03-16T06:34:55;101422.03;;;20.88;34.51
62710;BME280;48770;51.624;5.886;2023-03-16T06:37:24;101423.19;;;20.87;34.71
62710;BME280;48770;51.624;5.886;2023-03-16T06:39:49;101422.03;;;20.88;34.51
62710;BME280;48770;51.624;5.886;2023-03-16T06:42:14;101424.81;;;20.88;34.51
62710;BME280;48770;51.624;5.886;2023-03-16T06:44:40;101422.84;;;20.88;34.24
62710;BME280;48770;51.624;5.886;2023-03-16T06:47:05;101422.50;;;20.90;34.30
62710;BME280;48770;51.624;5.886;2023-03-16T06:49:31;101422.03;;;20.88;34.60
62710;BME280;48770;51.624;5.886;2023-03-16T06:51:56;101419.25;;;20.88;34.59
62710;BME280;48770;51.624;5.886;2023-03-16T06:54:23;101416.47;;;20.88;34.50
62710;BME280;48770;51.624;5.886;2023-03-16T06:56:49;101422.84;;;20.88;34.33
62710;BME280;48770;51.624;5.886;2023-03-16T06:59:15;101417.63;;;20.87;34.34
62710;BME280;48770;51.624;5.886;2023-03-16T07:01:40;101423.19;;;20.87;34.28
62710;BME280;48770;51.624;5.886;2023-03-16T07:04:06;101420.41;;;20.87;34.45
62710;BME280;48770;51.624;5.886;2023-03-16T07:06:32;101423.19;;;20.87;34.38
62710;BME280;48770;51.624;5.886;2023-03-16T07:08:58;101424.34;;;20.86;34.66
62710;BME280;48770;51.624;5.886;2023-03-16T07:11:25;101429.91;;;20.86;34.46
62710;BME280;48770;51.624;5.886;2023-03-16T07:13:50;101429.09;;;20.85;34.73
62710;BME280;48770;51.624;5.886;2023-03-16T07:16:16;101432.19;;;20.84;34.34
62710;BME280;48770;51.624;5.886;2023-03-16T07:18:41;101423.88;;;20.84;34.33
62710;BME280;48770;51.624;5.886;2023-03-16T07:21:08;101426.66;;;20.84;34.22
62710;BME280;48770;51.624;5.886;2023-03-16T07:23:34;101419.47;;;20.83;34.58
62710;BME280;48770;51.624;5.886;2023-03-16T07:25:59;101424.22;;;20.82;34.27
62710;BME280;48770;51.624;5.886;2023-03-16T07:28:24;101413.91;;;20.83;34.59
62710;BME280;48770;51.624;5.886;2023-03-16T07:30:51;101413.91;;;20.83;34.47
62710;BME280;48770;51.624;5.886;2023-03-16T07:33:16;101412.28;;;20.82;34.63
62710;BME280;48770;51.624;5.886;2023-03-16T07:35:41;101417.84;;;20.82;34.42
62710;BME280;48770;51.624;5.886;2023-03-16T07:38:06;101413.91;;;20.83;34.40
62710;BME280;48770;51.624;5.886;2023-03-16T07:40:35;101416.69;;;20.83;34.45
62710;BME280;48770;51.624;5.886;2023-03-16T07:43:00;101421.09;;;20.84;34.61
62710;BME280;48770;51.624;5.886;2023-03-16T07:45:26;101422.72;;;20.85;34.39
62710;BME280;48770;51.624;5.886;2023-03-16T07:47:51;101417.97;;;20.85;34.67
62710;BME280;48770;51.624;5.886;2023-03-16T07:50:16;101421.22;;;20.87;34.25
62710;BME280;48770;51.624;5.886;2023-03-16T07:52:43;101420.88;;;20.89;34.46
62710;BME280;48770;51.624;5.886;2023-03-16T07:55:10;101416.13;;;20.89;34.34
62710;BME280;48770;51.624;5.886;2023-03-16T07:57:36;101417.75;;;20.90;34.37
62710;BME280;48770;51.624;5.886;2023-03-16T08:00:03;101421.00;;;20.92;34.35
62710;BME280;48770;51.624;5.886;2023-03-16T08:02:29;101419.03;;;20.93;34.39
62710;BME280;48770;51.624;5.886;2023-03-16T08:04:55;101407.94;;;20.93;34.44
62710;BME280;48770;51.624;5.886;2023-03-16T08:07:20;101415.94;;;20.94;34.63
62710;BME280;48770;51.624;5.886;2023-03-16T08:09:46;101420.66;;;20.94;34.41
62710;BME280;48770;51.624;5.886;2023-03-16T08:12:11;101411.19;;;20.95;34.50
62710;BME280;48770;51.624;5.886;2023-03-16T08:14:37;101407.25;;;20.96;34.62
62710;BME280;48770;51.624;5.886;2023-03-16T08:17:03;101404.94;;;20.98;34.59
62710;BME280;48770;51.624;5.886;2023-03-16T08:19:30;101400.19;;;20.99;34.52
62710;BME280;48770;51.624;5.886;2023-03-16T08:21:56;101404.94;;;20.98;34.36
62710;BME280;48770;51.624;5.886;2023-03-16T08:24:23;101401.34;;;20.98;34.43
62710;BME280;48770;51.624;5.886;2023-03-16T08:26:49;101404.13;;;20.98;34.36
62710;BME280;48770;51.624;5.886;2023-03-16T08:29:14;101400.19;;;20.99;34.36
62710;BME280;48770;51.624;5.886;2023-03-16T08:31:40;101396.59;;;20.98;34.59
62710;BME280;48770;51.624;5.886;2023-03-16T08:34:07;101401.34;;;20.98;34.49
62710;BME280;48770;51.624;5.886;2023-03-16T08:36:32;101392.53;;;20.96;34.55
62710;BME280;48770;51.624;5.886;2023-03-16T08:38:57;101397.75;;;20.97;34.48
62710;BME280;48770;51.624;5.886;2023-03-16T08:41:23;101390.22;;;20.98;34.43
62710;BME280;48770;51.624;5.886;2023-03-16T08:43:49;101374.69;;;20.97;34.30
62710;BME280;48770;51.624;5.886;2023-03-16T08:46:14;101384.66;;;20.98;34.78
62710;BME280;48770;51.624;5.886;2023-03-16T08:48:40;101365.53;;;20.96;34.68
62710;BME280;48770;51.624;5.886;2023-03-16T08:51:07;101378.63;;;20.96;34.25
62710;BME280;48770;51.624;5.886;2023-03-16T08:53:33;101375.84;;;20.96;34.56
62710;BME280;48770;51.624;5.886;2023-03-16T08:56:08;101373.41;;;20.94;34.29
62710;BME280;48770;51.624;5.886;2023-03-16T08:58:35;101381.75;;;20.94;34.44
62710;BME280;48770;51.624;5.886;2023-03-16T09:01:01;101372.25;;;20.95;34.57
62710;BME280;48770;51.624;5.886;2023-03-16T09:03:28;101372.25;;;20.95;34.53
62710;BME280;48770;51.624;5.886;2023-03-16T09:06:00;101384.53;;;20.94;34.63
62710;BME280;48770;51.624;5.886;2023-03-16T09:08:26;101376.53;;;20.92;34.57
62710;BME280;48770;51.624;5.886;2023-03-16T09:11:01;101377.81;;;20.95;34.50
62710;BME280;48770;51.624;5.886;2023-03-16T09:13:28;101378.28;;;20.97;34.59
62710;BME280;48770;51.624;5.886;2023-03-16T09:15:54;101371.44;;;20.94;34.50
62710;BME280;48770;51.624;5.886;2023-03-16T09:18:19;101368.66;;;20.94;34.32
62710;BME280;48770;51.624;5.886;2023-03-16T09:20:45;101366.69;;;20.95;34.54
62710;BME280;48770;51.624;5.886;2023-03-16T09:23:12;101369.47;;;20.95;34.44
62710;BME280;48770;51.624;5.886;2023-03-16T09:25:38;101362.28;;;20.94;34.39
62710;BME280;48770;51.624;5.886;2023-03-16T09:28:04;101367.84;;;20.94;34.64
62710;BME280;48770;51.624;5.886;2023-03-16T09:30:29;101364.25;;;20.93;34.41
62710;BME280;48770;51.624;5.886;2023-03-16T09:32:55;101370.16;;;20.92;34.40
62710;BME280;48770;51.624;5.886;2023-03-16T09:35:20;101364.59;;;20.92;34.31
62710;BME280;48770;51.624;5.886;2023-03-16T09:37:46;101363.78;;;20.91;34.78
62710;BME280;48770;51.624;5.886;2023-03-16T09:40:26;101366.56;;;20.91;34.65
62710;BME280;48770;51.624;5.886;2023-03-16T09:45:37;101346.31;;;20.91;34.57
62710;BME280;48770;51.624;5.886;2023-03-16T09:48:07;101350.69;;;20.92;34.40
62710;BME280;48770;51.624;5.886;2023-03-16T09:50:38;101350.34;;;20.93;34.38
62710;BME280;48770;51.624;5.886;2023-03-16T09:53:16;101352.81;;;20.95;34.34
62710;BME280;48770;51.624;5.886;2023-03-16T09:55:45;101350.03;;;20.95;34.34
62710;BME280;48770;51.624;5.886;2023-03-16T09:58:17;101348.88;;;20.96;34.67
62710;BME280;48770;51.624;5.886;2023-03-16T10:01:10;101350.03;;;20.95;34.30
62710;BME280;48770;51.624;5.886;2023-03-16T10:06:21;101348.06;;;20.96;34.36
62710;BME280;48770;51.624;5.886;2023-03-16T10:08:51;101352.94;;;20.99;34.27
62710;BME280;48770;51.624;5.886;2023-03-16T10:16:30;101330.34;;;21.00;34.20
62710;BME280;48770;51.624;5.886;2023-03-16T10:19:12;101320.03;;;21.01;34.40
62710;BME280;48770;51.624;5.886;2023-03-16T10:21:40;101319.22;;;21.00;34.59
62710;BME280;48770;51.624;5.886;2023-03-16T10:26:58;101315.63;;;21.00;34.17
62710;BME280;48770;51.624;5.886;2023-03-16T10:29:32;101319.69;;;21.02;34.29
62710;BME280;48770;51.624;5.886;2023-03-16T10:32:06;101312.16;;;21.03;34.35
62710;BME280;48770;51.624;5.886;2023-03-16T10:34:35;101307.41;;;21.03;34.17
62710;BME280;48770;51.624;5.886;2023-03-16T10:37:02;101305.09;;;21.05;34.63
62710;BME280;48770;51.624;5.886;2023-03-16T10:39:35;101305.91;;;21.06;34.12
62710;BME280;48770;51.624;5.886;2023-03-16T10:42:00;101318.66;;;21.07;34.10
62710;BME280;48770;51.624;5.886;2023-03-16T10:44:27;101293.31;;;21.08;33.93
62710;BME280;48770;51.624;5.886;2023-03-16T10:47:00;101307.22;;;21.08;34.26
62710;BME280;48770;51.624;5.886;2023-03-16T10:49:40;101297.72;;;21.09;34.18
62710;BME280;48770;51.624;5.886;2023-03-16T10:52:39;101301.66;;;21.08;34.31
62710;BME280;48770;51.624;5.886;2023-03-16T10:55:10;101292.16;;;21.09;34.12
62710;BME280;48770;51.624;5.886;2023-03-16T10:57:40;101301.78;;;21.12;34.22
62710;BME280;48770;51.624;5.886;2023-03-16T11:00:06;101289.50;;;21.13;34.03
62710;BME280;48770;51.624;5.886;2023-03-16T11:02:38;101289.16;;;21.14;34.20
62710;BME280;48770;51.624;5.886;2023-03-16T11:07:49;101290.44;;;21.17;34.23
62710;BME280;48770;51.624;5.886;2023-03-16T11:12:53;101288.94;;;21.19;34.08
62710;BME280;48770;51.624;5.886;2023-03-16T11:15:19;101281.88;;;21.22;34.08
62710;BME280;48770;51.624;5.886;2023-03-16T11:17:49;101287.13;;;21.23;34.00
62710;BME280;48770;51.624;5.886;2023-03-16T11:20:21;101272.06;;;21.24;33.92
62710;BME280;48770;51.624;5.886;2023-03-16T11:22:48;101268.13;;;21.26;34.05
62710;BME280;48770;51.624;5.886;2023-03-16T11:26:06;101263.72;;;21.24;34.02
62710;BME280;48770;51.624;5.886;2023-03-16T11:28:37;101255.38;;;21.24;34.18
62710;BME280;48770;51.624;5.886;2023-03-16T11:31:19;101250.63;;;21.25;33.97
62710;BME280;48770;51.624;5.886;2023-03-16T11:33:46;101239.97;;;21.27;34.04
62710;BME280;48770;51.624;5.886;2023-03-16T11:49:47;101230.44;;;21.28;33.91
62710;BME280;48770;51.624;5.886;2023-03-16T11:52:24;101226.97;;;21.31;34.27
62710;BME280;48770;51.624;5.886;2023-03-16T12:00:30;101205.88;;;21.30;34.00
62710;BME280;48770;51.624;5.886;2023-03-16T12:11:12;101204.06;;;21.34;33.99
62710;BME280;48770;51.624;5.886;2023-03-16T12:14:12;101199.31;;;21.35;33.96
62710;BME280;48770;51.624;5.886;2023-03-16T12:16:45;101193.75;;;21.35;34.28
62710;BME280;48770;51.624;5.886;2023-03-16T12:19:27;101182.25;;;21.36;33.95
62710;BME280;48770;51.624;5.886;2023-03-16T12:22:02;101191.41;;;21.37;34.27
62710;BME280;48770;51.624;5.886;2023-03-16T12:24:37;101182.25;;;21.36;33.82
62710;BME280;48770;51.624;5.886;2023-03-16T12:27:05;101183.06;;;21.37;33.75
62710;BME280;48770;51.624;5.886;2023-03-16T12:29:52;101177.50;;;21.37;34.03
62710;BME280;48770;51.624;5.886;2023-03-16T12:32:32;101166.03;;;21.38;34.11
62710;BME280;48770;51.624;5.886;2023-03-16T12:46:21;101160.34;;;21.47;34.45
62710;BME280;48770;51.624;5.886;2023-03-16T12:48:56;101147.00;;;21.52;34.13
62710;BME280;48770;51.624;5.886;2023-03-16T12:51:37;101142.00;;;21.58;34.25
62710;BME280;48770;51.624;5.886;2023-03-16T12:54:03;101143.75;;;21.63;34.23
62710;BME280;48770;51.624;5.886;2023-03-16T12:56:35;101123.22;;;21.67;34.17
62710;BME280;48770;51.624;5.886;2023-03-16T12:59:15;101128.91;;;21.71;33.78
62710;BME280;48770;51.624;5.886;2023-03-16T13:01:43;101121.47;;;21.75;33.98
62710;BME280;48770;51.624;5.886;2023-03-16T13:04:15;101115.19;;;21.78;34.00
62710;BME280;48770;51.624;5.886;2023-03-16T13:06:49;101120.84;;;21.81;34.18
62710;BME280;48770;51.624;5.886;2023-03-16T13:09:22;101097.06;;;21.84;33.84
62710;BME280;48770;51.624;5.886;2023-03-16T13:11:48;101102.75;;;21.88;34.17
62710;BME280;48770;51.624;5.886;2023-03-16T13:19:43;101080.44;;;22.00;34.35
62710;BME280;48770;51.624;5.886;2023-03-16T13:24:57;101070.31;;;22.07;33.74
62710;BME280;48770;51.624;5.886;2023-03-16T13:27:31;101069.59;;;22.10;33.89
62710;BME280;48770;51.624;5.886;2023-03-16T13:30:00;101061.38;;;22.14;33.56
62710;BME280;48770;51.624;5.886;2023-03-16T13:32:30;101061.47;;;22.18;33.84
62710;BME280;48770;51.624;5.886;2023-03-16T13:34:58;101060.41;;;22.22;33.41
62710;BME280;48770;51.624;5.886;2023-03-16T13:37:27;101061.66;;;22.25;33.75
62710;BME280;48770;51.624;5.886;2023-03-16T13:39:58;101059.78;;;22.29;33.70
62710;BME280;48770;51.624;5.886;2023-03-16T13:42:27;101069.84;;;22.33;33.30
62710;BME280;48770;51.624;5.886;2023-03-16T13:44:54;101049.63;;;22.36;33.73
62710;BME280;48770;51.624;5.886;2023-03-16T13:47:21;101055.31;;;22.40;33.30
62710;BME280;48770;51.624;5.886;2023-03-16T13:49:54;101049.03;;;22.43;33.62
62710;BME280;48770;51.624;5.886;2023-03-16T13:52:27;101043.19;;;22.48;33.64
62710;BME280;48770;51.624;5.886;2023-03-16T13:54:54;101043.34;;;22.55;33.43
62710;BME280;48770;51.624;5.886;2023-03-16T13:57:24;101031.78;;;22.69;33.08
62710;BME280;48770;51.624;5.886;2023-03-16T13:59:51;101036.91;;;22.83;33.26
62710;BME280;48770;51.624;5.886;2023-03-16T14:02:23;101021.50;;;23.04;32.82
62710;BME280;48770;51.624;5.886;2023-03-16T14:04:48;101028.47;;;23.14;32.43
62710;BME280;48770;51.624;5.886;2023-03-16T14:07:19;101022.72;;;23.23;32.13